createdAt,value
2022-11-28T00:01:43.195Z,66.00
2022-11-28T00:04:11.898Z,68.15
2022-11-28T00:06:45.365Z,69.12
2022-11-28T00:09:14.710Z,68.70
2022-11-28T00:11:44.374Z,63.40
2022-11-28T00:14:12.464Z,68.12
2022-11-28T00:16:40.378Z,66.47
2022-11-28T00:19:08.915Z,62.67
2022-11-28T00:21:36.533Z,67.43
2022-11-28T00:24:05.024Z,67.80
2022-11-28T00:26:39.425Z,63.90
2022-11-28T00:29:08.616Z,63.70
2022-11-28T00:31:43.964Z,67.10
2022-11-28T00:34:13.893Z,67.60
2022-11-28T00:36:43.759Z,61.10
2022-11-28T00:39:11.525Z,63.15
2022-11-28T00:41:39.539Z,58.38
2022-11-28T00:44:07.462Z,64.50
2022-11-28T00:46:35.089Z,59.38
2022-11-28T00:49:04.095Z,59.00
2022-11-28T00:51:33.491Z,70.18
2022-11-28T00:54:03.591Z,62.83
2022-11-28T00:56:34.981Z,66.30
2022-11-28T00:59:02.871Z,61.25
2022-11-28T01:01:33.328Z,60.45
2022-11-28T01:04:05.428Z,56.40
2022-11-28T01:06:39.119Z,60.38
2022-11-28T01:09:10.641Z,64.37
2022-11-28T01:11:40.145Z,58.95
2022-11-28T01:14:09.269Z,56.67
2022-11-28T01:16:37.266Z,58.47
2022-11-28T01:19:05.891Z,53.03
2022-11-28T01:21:34.280Z,62.75
2022-11-28T01:24:02.909Z,55.38
2022-11-28T01:26:31.204Z,56.05
2022-11-28T01:29:00.719Z,60.08
2022-11-28T01:31:29.683Z,57.67
2022-11-28T01:33:58.253Z,56.30
2022-11-28T01:36:26.508Z,51.70
2022-11-28T01:38:54.250Z,53.47
2022-11-28T01:41:24.999Z,53.72
2022-11-28T01:44:05.772Z,51.97
2022-11-28T01:46:34.596Z,56.37
2022-11-28T01:49:28.952Z,56.33
2022-11-28T01:52:03.095Z,58.08
2022-11-28T01:54:33.083Z,54.88
2022-11-28T01:57:08.069Z,59.08
2022-11-28T01:59:40.687Z,55.58
2022-11-28T02:02:15.670Z,57.55
2022-11-28T02:04:44.662Z,52.45
2022-11-28T02:07:12.982Z,60.00
2022-11-28T02:09:42.155Z,58.13
2022-11-28T02:12:30.730Z,55.92
2022-11-28T02:15:17.090Z,55.28
2022-11-28T02:18:09.786Z,63.10
2022-11-28T02:21:02.946Z,64.25
2022-11-28T02:24:06.292Z,61.28
2022-11-28T02:26:33.733Z,52.40
2022-11-28T02:29:32.781Z,53.35
2022-11-28T02:32:22.074Z,58.33
2022-11-28T02:35:03.395Z,52.58
2022-11-28T02:37:44.280Z,62.25
2022-11-28T02:42:50.291Z,56.17
2022-11-28T02:45:32.094Z,56.15
2022-11-28T02:48:04.499Z,55.47
2022-11-28T02:50:43.406Z,55.03
2022-11-28T02:53:16.910Z,51.60
2022-11-28T02:55:45.062Z,51.45
2022-11-28T02:58:13.159Z,56.50
2022-11-28T03:00:46.281Z,56.70
2022-11-28T03:03:33.190Z,55.40
2022-11-28T03:06:32.536Z,51.72
2022-11-28T03:09:27.911Z,56.45
2022-11-28T03:12:33.169Z,55.17
2022-11-28T03:15:07.996Z,55.10
2022-11-28T03:18:03.519Z,51.58
2022-11-28T03:20:55.040Z,60.28
2022-11-28T03:23:42.798Z,54.45
2022-11-28T03:26:18.615Z,60.33
2022-11-28T03:28:57.801Z,51.58
2022-11-28T03:31:41.655Z,56.85
2022-11-28T03:34:14.311Z,55.05
2022-11-28T03:36:48.973Z,61.45
2022-11-28T03:39:22.427Z,54.42
2022-11-28T03:42:03.355Z,55.88
2022-11-28T03:44:38.401Z,52.03
2022-11-28T03:47:07.211Z,55.67
2022-11-28T03:49:41.792Z,56.25
2022-11-28T03:52:20.985Z,54.78
2022-11-28T03:55:03.853Z,52.38
2022-11-28T03:57:59.845Z,52.35
2022-11-28T04:00:27.707Z,52.80
2022-11-28T04:03:07.934Z,58.17
2022-11-28T04:05:35.572Z,54.45
2022-11-28T04:08:09.372Z,60.42
2022-11-28T04:10:43.092Z,59.50
2022-11-28T04:13:22.900Z,56.72
2022-11-28T04:16:05.193Z,59.15
2022-11-28T04:18:51.214Z,57.17
2022-11-28T04:21:36.986Z,54.45
2022-11-28T04:24:12.429Z,55.53
2022-11-28T04:26:45.294Z,50.10
2022-11-28T04:29:18.288Z,58.50
2022-11-28T04:31:48.935Z,52.15
2022-11-28T04:34:20.450Z,52.83
2022-11-28T04:36:49.880Z,57.42
2022-11-28T04:39:26.434Z,55.03
2022-11-28T04:42:00.299Z,53.30
2022-11-28T04:44:33.281Z,53.17
2022-11-28T04:47:00.976Z,61.50
2022-11-28T04:49:30.465Z,57.70
2022-11-28T04:52:07.170Z,58.53
2022-11-28T04:55:02.883Z,61.88
2022-11-28T04:57:35.097Z,60.25
2022-11-28T05:00:17.130Z,66.90
2022-11-28T05:02:47.103Z,70.90
2022-11-28T05:05:24.486Z,65.45
2022-11-28T05:07:53.252Z,68.53
2022-11-28T05:10:21.876Z,68.43
2022-11-28T05:12:49.381Z,63.67
2022-11-28T05:15:19.258Z,66.05
2022-11-28T05:17:47.464Z,69.90
2022-11-28T05:20:15.224Z,62.47
2022-11-28T05:22:42.988Z,67.07
2022-11-28T05:25:10.887Z,74.15
2022-11-28T05:27:38.462Z,73.65
2022-11-28T05:30:07.413Z,71.95
2022-11-28T05:32:36.498Z,70.82
2022-11-28T05:35:05.031Z,66.53
2022-11-28T05:37:32.890Z,71.03
2022-11-28T05:40:00.983Z,74.18
2022-11-28T05:42:32.501Z,71.78
2022-11-28T05:47:31.270Z,68.50
2022-11-28T05:50:00.797Z,68.10
2022-11-28T05:52:29.871Z,66.25
2022-11-28T05:54:57.421Z,72.40
2022-11-28T05:57:24.940Z,66.57
2022-11-28T05:59:56.380Z,73.00
2022-11-28T06:02:24.057Z,72.45
2022-11-28T06:04:52.044Z,71.32
2022-11-28T06:07:19.995Z,63.45
2022-11-28T06:09:47.621Z,68.20
2022-11-28T06:12:15.470Z,68.97
2022-11-28T06:14:43.022Z,74.37
2022-11-28T06:17:10.617Z,67.90
2022-11-28T06:19:39.214Z,69.37
2022-11-28T06:22:06.808Z,74.75
2022-11-28T06:24:34.325Z,77.87
2022-11-28T06:27:02.200Z,71.85
2022-11-28T06:29:29.733Z,69.22
2022-11-28T06:31:57.380Z,77.22
2022-11-28T06:34:25.459Z,69.87
2022-11-28T06:36:53.324Z,70.45
2022-11-28T06:39:20.895Z,74.97
2022-11-28T06:41:49.482Z,71.25
2022-11-28T06:44:17.753Z,73.00
2022-11-28T06:46:45.297Z,75.53
2022-11-28T06:49:13.772Z,72.65
2022-11-28T06:51:42.851Z,68.65
2022-11-28T06:54:10.526Z,69.60
2022-11-28T06:56:40.232Z,72.32
2022-11-28T06:59:08.166Z,70.05
2022-11-28T07:01:35.780Z,72.55
2022-11-28T07:04:03.744Z,79.22
2022-11-28T07:06:31.445Z,67.70
2022-11-28T07:08:59.400Z,69.12
2022-11-28T07:11:30.198Z,69.75
2022-11-28T07:14:00.737Z,77.60
2022-11-28T07:16:33.161Z,77.53
2022-11-28T07:19:01.310Z,66.55
2022-11-28T07:21:29.802Z,65.95
2022-11-28T07:23:59.305Z,65.85
2022-11-28T07:26:27.052Z,66.65
2022-11-28T07:28:57.924Z,61.80
2022-11-28T07:31:28.039Z,72.53
2022-11-28T07:33:55.939Z,60.47
2022-11-28T07:36:26.915Z,62.95
2022-11-28T07:38:57.465Z,65.82
2022-11-28T07:41:27.344Z,57.38
2022-11-28T07:44:00.803Z,56.95
2022-11-28T07:46:30.306Z,57.33
2022-11-28T07:48:57.961Z,52.33
2022-11-28T07:51:28.745Z,55.63
2022-11-28T07:53:56.834Z,63.15
2022-11-28T07:56:56.733Z,58.53
2022-11-28T07:59:18.378Z,59.05
2022-11-28T08:01:45.999Z,59.45
2022-11-28T08:04:13.983Z,58.05
2022-11-28T08:06:43.457Z,59.00
2022-11-28T08:09:14.649Z,55.60
2022-11-28T08:14:11.013Z,57.50
2022-11-28T08:16:41.434Z,54.67
2022-11-28T08:19:09.392Z,62.20
2022-11-28T08:21:37.641Z,61.67
2022-11-28T08:24:06.253Z,53.08
2022-11-28T08:26:34.920Z,56.15
2022-11-28T08:29:03.889Z,58.35
2022-11-28T08:31:35.199Z,58.72
2022-11-28T08:34:06.550Z,57.00
2022-11-28T08:36:34.203Z,64.37
2022-11-28T08:39:22.801Z,61.78
2022-11-28T08:41:50.925Z,56.95
2022-11-28T08:44:18.689Z,54.30
2022-11-28T08:46:46.275Z,55.80
2022-11-28T08:49:14.210Z,54.60
2022-11-28T08:51:41.947Z,54.05
2022-11-28T08:54:09.803Z,52.62
2022-11-28T08:56:37.666Z,68.95
2022-11-28T08:59:05.222Z,132.98
2022-11-28T09:01:33.056Z,62.13
2022-11-28T09:04:01.181Z,57.47
2022-11-28T09:06:28.884Z,62.85
2022-11-28T09:08:56.495Z,55.70
2022-11-28T09:11:24.716Z,55.22
2022-11-28T09:13:52.374Z,53.03
2022-11-28T09:16:19.989Z,57.62
2022-11-28T09:18:48.172Z,54.05
2022-11-28T09:21:16.059Z,61.00
2022-11-28T09:23:45.114Z,56.97
2022-11-28T09:26:16.894Z,49.75
2022-11-28T09:31:13.895Z,52.45
2022-11-28T09:33:42.637Z,55.30
2022-11-28T09:36:15.776Z,52.30
2022-11-28T09:38:43.799Z,67.93
2022-11-28T09:41:24.197Z,72.12
2022-11-28T09:43:55.243Z,68.35
2022-11-28T09:46:34.473Z,58.80
2022-11-28T09:49:11.136Z,46.97
2022-11-28T09:52:00.485Z,51.95
2022-11-28T09:54:45.422Z,53.13
2022-11-28T09:57:25.679Z,45.20
2022-11-28T10:00:22.814Z,51.78
2022-11-28T10:03:22.122Z,53.85
2022-11-28T10:06:03.441Z,50.33
2022-11-28T10:09:00.978Z,54.38
2022-11-28T10:11:37.539Z,49.35
2022-11-28T10:14:23.314Z,48.72
2022-11-28T10:17:02.948Z,46.08
2022-11-28T10:19:58.708Z,47.25
2022-11-28T10:22:35.837Z,44.13
2022-11-28T10:25:12.583Z,48.67
2022-11-28T10:27:41.215Z,52.38
2022-11-28T10:30:23.234Z,48.03
2022-11-28T10:33:12.234Z,53.17
2022-11-28T10:35:48.621Z,43.50
2022-11-28T10:38:17.603Z,49.53
2022-11-28T10:41:12.597Z,46.92
2022-11-28T10:43:44.200Z,57.05
2022-11-28T10:46:42.835Z,44.03
2022-11-28T10:49:16.521Z,55.30
2022-11-28T10:51:57.448Z,50.33
2022-11-28T10:54:43.054Z,49.70
2022-11-28T10:58:09.317Z,43.47
2022-11-28T11:00:38.215Z,44.85
2022-11-28T11:03:13.278Z,42.97
2022-11-28T11:05:41.369Z,43.75
2022-11-28T11:08:29.333Z,46.95
2022-11-28T11:11:02.982Z,42.88
2022-11-28T11:13:33.227Z,40.72
2022-11-28T11:16:07.618Z,42.95
2022-11-28T11:18:37.027Z,43.08
2022-11-28T11:21:07.235Z,42.15
2022-11-28T11:23:38.470Z,39.33
2022-11-28T11:26:10.337Z,46.55
2022-11-28T11:28:42.749Z,43.65
2022-11-28T11:31:19.208Z,40.33
2022-11-28T11:33:48.866Z,41.63
2022-11-28T11:36:24.964Z,36.90
2022-11-28T11:39:16.974Z,39.92
2022-11-28T11:42:10.633Z,43.45
2022-11-28T11:44:38.583Z,40.08
2022-11-28T11:47:08.712Z,39.88
2022-11-28T11:49:37.795Z,44.40
2022-11-28T11:52:07.055Z,37.25
2022-11-28T11:54:34.677Z,41.90
2022-11-28T11:57:32.397Z,40.25
2022-11-28T12:00:07.078Z,34.83
2022-11-28T12:02:46.155Z,32.88
2022-11-28T12:05:16.579Z,31.52
2022-11-28T12:08:15.325Z,32.05
2022-11-28T12:10:50.539Z,35.72
2022-11-28T12:13:21.447Z,39.38
2022-11-28T12:16:30.910Z,36.80
2022-11-28T12:19:22.617Z,41.05
2022-11-28T12:22:06.785Z,40.15
2022-11-28T12:24:54.559Z,46.88
2022-11-28T12:27:52.487Z,54.88
2022-11-28T12:30:29.592Z,37.30
2022-11-28T12:33:12.003Z,39.75
2022-11-28T12:35:43.434Z,36.65
2022-11-28T12:38:31.299Z,38.42
2022-11-28T12:41:37.177Z,34.92
2022-11-28T12:44:54.333Z,33.40
2022-11-28T12:47:43.163Z,36.13
2022-11-28T12:50:20.211Z,39.72
2022-11-28T12:53:06.230Z,44.13
2022-11-28T12:56:20.592Z,43.10
2022-11-28T12:59:26.165Z,41.92
2022-11-28T13:02:18.971Z,38.20
2022-11-28T13:05:03.428Z,42.03
2022-11-28T13:07:43.074Z,41.22
2022-11-28T13:10:39.132Z,39.70
2022-11-28T13:13:20.793Z,40.85
2022-11-28T13:19:03.381Z,43.00
2022-11-28T13:21:45.072Z,46.70
2022-11-28T13:24:27.934Z,39.00
2022-11-28T13:27:24.628Z,38.97
2022-11-28T13:30:13.431Z,37.97
2022-11-28T13:32:57.747Z,47.30
2022-11-28T13:35:28.763Z,43.87
2022-11-28T13:41:28.799Z,36.95
2022-11-28T13:44:07.795Z,40.85
2022-11-28T13:46:35.901Z,42.58
2022-11-28T13:49:21.561Z,39.45
2022-11-28T13:52:18.084Z,38.22
2022-11-28T13:54:53.820Z,40.17
2022-11-28T13:57:21.851Z,40.33
2022-11-28T13:59:54.833Z,38.00
2022-11-28T14:02:41.933Z,39.53
2022-11-28T14:05:28.394Z,40.40
2022-11-28T14:07:57.331Z,45.15
2022-11-28T14:10:48.360Z,42.40
2022-11-28T14:13:26.628Z,46.90
2022-11-28T14:16:12.758Z,91.28
2022-11-28T14:19:09.620Z,44.67
2022-11-28T14:22:02.062Z,41.08
2022-11-28T14:24:51.414Z,38.00
2022-11-28T14:27:36.408Z,38.08
2022-11-28T14:30:07.625Z,37.58
2022-11-28T14:32:39.062Z,42.20
2022-11-28T14:35:16.228Z,67.35
2022-11-28T14:37:53.089Z,44.20
2022-11-28T14:40:58.501Z,38.15
2022-11-28T14:43:35.391Z,38.10
2022-11-28T14:46:26.731Z,39.45
2022-11-28T14:48:58.046Z,54.88
2022-11-28T14:51:44.307Z,47.75
2022-11-28T14:54:22.212Z,47.45
2022-11-28T14:56:58.326Z,44.25
2022-11-28T14:59:34.489Z,46.92
2022-11-28T15:02:10.947Z,49.08
2022-11-28T15:05:00.650Z,48.95
2022-11-28T15:07:47.182Z,41.78
2022-11-28T15:10:26.334Z,42.85
2022-11-28T15:13:27.063Z,43.47
2022-11-28T15:15:58.092Z,44.25
2022-11-28T15:18:26.857Z,42.65
2022-11-28T15:21:04.423Z,66.15
2022-11-28T15:23:38.548Z,46.78
2022-11-28T15:26:06.932Z,42.08
2022-11-28T15:28:36.142Z,43.28
2022-11-28T15:31:05.858Z,40.72
2022-11-28T15:33:34.243Z,47.28
2022-11-28T15:36:17.034Z,43.50
2022-11-28T15:38:44.733Z,46.10
2022-11-28T15:41:12.883Z,48.70
2022-11-28T15:43:45.567Z,54.58
2022-11-28T15:46:20.443Z,53.17
2022-11-28T15:48:52.868Z,65.35
2022-11-28T15:51:24.521Z,63.87
2022-11-28T15:53:52.321Z,61.08
2022-11-28T15:56:20.302Z,46.17
2022-11-28T15:58:48.997Z,51.35
2022-11-28T16:01:19.875Z,55.95
2022-11-28T16:03:53.733Z,74.00
2022-11-28T16:06:23.281Z,87.60
2022-11-28T16:09:04.109Z,73.62
2022-11-28T16:11:33.061Z,67.53
2022-11-28T16:14:09.254Z,70.53
2022-11-28T16:16:39.111Z,50.00
2022-11-28T16:19:20.868Z,69.43
2022-11-28T16:21:53.192Z,75.55
2022-11-28T16:24:35.460Z,84.28
2022-11-28T16:27:06.188Z,45.38
2022-11-28T16:29:36.162Z,45.78
2022-11-28T16:32:08.394Z,46.53
2022-11-28T16:34:50.636Z,45.97
2022-11-28T16:37:25.647Z,43.90
2022-11-28T16:40:14.929Z,41.47
2022-11-28T16:42:43.118Z,51.22
2022-11-28T16:45:22.080Z,54.75
2022-11-28T16:48:07.305Z,67.45
2022-11-28T16:50:36.927Z,50.17
2022-11-28T16:53:05.513Z,52.53
2022-11-28T16:55:33.790Z,42.85
2022-11-28T16:58:10.401Z,39.70
2022-11-28T17:00:40.853Z,41.00
2022-11-28T17:03:41.428Z,46.05
2022-11-28T17:06:34.345Z,42.03
2022-11-28T17:09:07.880Z,40.25
2022-11-28T17:11:38.724Z,42.10
2022-11-28T17:14:13.294Z,39.25
2022-11-28T17:16:42.776Z,44.97
2022-11-28T17:19:11.376Z,39.75
2022-11-28T17:22:05.005Z,45.88
2022-11-28T17:24:36.464Z,39.67
2022-11-28T17:27:07.614Z,38.53
2022-11-28T17:29:36.031Z,42.35
2022-11-28T17:32:04.045Z,40.17
2022-11-28T17:34:34.495Z,50.85
2022-11-28T17:37:03.095Z,36.58
2022-11-28T17:39:31.297Z,39.88
2022-11-28T17:41:59.220Z,40.45
2022-11-28T17:44:37.624Z,39.15
2022-11-28T17:47:06.410Z,39.60
2022-11-28T17:49:35.096Z,39.05
2022-11-28T17:52:04.303Z,39.05
2022-11-28T17:54:32.612Z,44.30
2022-11-28T17:57:01.668Z,52.33
2022-11-28T17:59:29.361Z,46.40
2022-11-28T18:01:57.566Z,51.22
2022-11-28T18:04:26.271Z,44.17
2022-11-28T18:06:54.856Z,44.80
2022-11-28T18:09:22.814Z,43.10
2022-11-28T18:11:51.732Z,43.55
2022-11-28T18:14:20.046Z,43.40
2022-11-28T18:16:48.172Z,43.25
2022-11-28T18:19:19.594Z,41.65
2022-11-28T18:21:48.108Z,43.55
2022-11-28T18:24:16.178Z,41.60
2022-11-28T18:26:44.030Z,39.92
2022-11-28T18:29:12.055Z,53.28
2022-11-28T18:31:40.341Z,47.78
2022-11-28T18:34:09.566Z,40.35
2022-11-28T18:36:39.070Z,39.67
2022-11-28T18:39:11.391Z,48.28
2022-11-28T18:41:42.871Z,61.55
2022-11-28T18:44:11.334Z,72.43
2022-11-28T18:46:39.794Z,75.72
2022-11-28T18:49:08.374Z,58.08
2022-11-28T18:51:36.963Z,68.57
2022-11-28T18:54:05.667Z,65.90
2022-11-28T18:56:34.070Z,56.83
2022-11-28T18:59:02.354Z,57.60
2022-11-28T19:01:33.051Z,49.20
2022-11-28T19:04:10.208Z,46.85
2022-11-28T19:06:44.000Z,48.10
2022-11-28T19:09:15.866Z,47.33
2022-11-28T19:11:45.242Z,48.40
2022-11-28T19:14:18.433Z,44.75
2022-11-28T19:16:50.314Z,43.42
2022-11-28T19:19:18.553Z,41.60
2022-11-28T19:21:47.025Z,41.70
2022-11-28T19:24:14.894Z,39.05
2022-11-28T19:26:42.916Z,40.72
2022-11-28T19:29:11.461Z,39.28
2022-11-28T19:31:41.275Z,37.95
2022-11-28T19:34:15.827Z,36.25
2022-11-28T19:36:47.461Z,40.22
2022-11-28T19:41:46.812Z,42.25
2022-11-28T19:44:18.006Z,41.00
2022-11-28T19:46:47.945Z,40.08
2022-11-28T19:49:19.485Z,40.75
2022-11-28T19:51:49.581Z,39.08
2022-11-28T19:54:20.520Z,42.03
2022-11-28T19:56:49.358Z,36.20
2022-11-28T19:59:18.435Z,37.58
2022-11-28T20:01:49.846Z,36.95
2022-11-28T20:04:19.361Z,39.00
2022-11-28T20:06:47.451Z,36.97
2022-11-28T20:09:15.824Z,37.38
2022-11-28T20:11:45.701Z,35.88
2022-11-28T20:14:17.521Z,38.53
2022-11-28T20:19:23.160Z,37.80
2022-11-28T20:21:51.082Z,38.55
2022-11-28T20:24:20.871Z,38.65
2022-11-28T20:26:50.577Z,43.00
2022-11-28T20:29:20.859Z,43.90
2022-11-28T20:31:50.429Z,39.55
2022-11-28T20:34:19.012Z,43.10
2022-11-28T20:36:52.121Z,45.90
2022-11-28T20:39:20.809Z,43.65
2022-11-28T20:41:48.724Z,45.65
2022-11-28T20:44:18.805Z,47.03
2022-11-28T20:46:47.212Z,45.70
2022-11-28T20:49:16.311Z,49.55
2022-11-28T20:51:44.277Z,48.28
2022-11-28T20:54:13.523Z,49.95
2022-11-28T20:57:12.764Z,48.58
2022-11-28T20:59:31.499Z,50.58
2022-11-28T21:01:59.111Z,45.65
2022-11-28T21:04:27.029Z,50.05
2022-11-28T21:06:54.916Z,49.80
2022-11-28T21:09:22.980Z,49.65
2022-11-28T21:11:58.414Z,45.00
2022-11-28T21:14:28.844Z,51.13
2022-11-28T21:16:57.992Z,54.80
2022-11-28T21:19:26.915Z,49.15
2022-11-28T21:21:54.749Z,52.08
2022-11-28T21:24:22.405Z,52.75
2022-11-28T21:26:53.830Z,49.75
2022-11-28T21:29:23.595Z,53.80
2022-11-28T21:31:51.738Z,52.50
2022-11-28T21:34:19.709Z,54.95
2022-11-28T21:36:47.958Z,46.35
2022-11-28T21:39:18.928Z,48.83
2022-11-28T21:41:46.858Z,52.78
2022-11-28T21:44:14.434Z,49.38
2022-11-28T21:46:42.241Z,52.38
2022-11-28T21:49:10.108Z,52.03
2022-11-28T21:51:38.268Z,45.12
2022-11-28T21:54:06.628Z,50.00
2022-11-28T21:56:35.709Z,49.40
2022-11-28T21:59:05.910Z,48.55
2022-11-28T22:01:34.188Z,44.63
2022-11-28T22:04:03.118Z,48.83
2022-11-28T22:06:32.225Z,45.12
2022-11-28T22:09:08.686Z,47.33
2022-11-28T22:11:39.112Z,47.50
2022-11-28T22:14:06.778Z,43.33
2022-11-28T22:16:34.520Z,48.30
2022-11-28T22:19:04.103Z,44.28
2022-11-28T22:24:20.405Z,44.90
2022-11-28T22:26:49.142Z,49.55
2022-11-28T22:29:16.794Z,63.15
2022-11-28T22:31:44.685Z,70.62
2022-11-28T22:34:12.251Z,56.22
2022-11-28T22:36:39.857Z,42.28
2022-11-28T22:39:10.507Z,46.05
2022-11-28T22:41:38.616Z,47.67
2022-11-28T22:44:06.376Z,56.10
2022-11-28T22:46:34.357Z,54.13
2022-11-28T22:49:02.882Z,54.53
2022-11-28T22:51:31.678Z,49.03
2022-11-28T22:54:01.631Z,52.97
2022-11-28T22:56:32.036Z,47.92
2022-11-28T22:59:00.896Z,47.42
2022-11-28T23:01:30.712Z,52.15
2022-11-28T23:03:59.306Z,80.45
2022-11-28T23:06:30.339Z,62.28
2022-11-28T23:08:59.962Z,55.50
2022-11-28T23:11:32.780Z,64.20
2022-11-28T23:14:01.633Z,58.05
2022-11-28T23:16:32.671Z,44.78
2022-11-28T23:19:03.822Z,55.70
2022-11-28T23:21:35.876Z,59.38
2022-11-28T23:24:04.628Z,63.03
2022-11-28T23:26:34.575Z,52.17
2022-11-28T23:29:04.765Z,53.60
2022-11-28T23:31:37.141Z,45.55
2022-11-28T23:34:06.092Z,45.55
2022-11-28T23:36:42.541Z,46.33
2022-11-28T23:39:19.647Z,45.97
2022-11-28T23:41:48.228Z,53.42
2022-11-28T23:44:17.916Z,48.22
2022-11-28T23:46:46.320Z,47.10
2022-11-28T23:49:14.476Z,45.75
2022-11-28T23:51:42.366Z,50.67
2022-11-28T23:54:11.884Z,46.37
2022-11-28T23:56:41.723Z,48.10
2022-11-28T23:59:11.561Z,47.80
